createdAt,value
2023-05-21T00:00:57.353Z,58.55
2023-05-21T00:02:04.361Z,58.38
2023-05-21T00:03:14.312Z,58.54
2023-05-21T00:04:17.896Z,58.63
2023-05-21T00:05:21.658Z,58.41
2023-05-21T00:06:24.011Z,58.42
2023-05-21T00:07:26.343Z,58.62
2023-05-21T00:08:29.133Z,58.93
2023-05-21T00:09:31.831Z,58.79
2023-05-21T00:10:34.540Z,58.70
2023-05-21T00:11:36.978Z,58.74
2023-05-21T00:12:39.394Z,58.68
2023-05-21T00:13:41.733Z,58.80
2023-05-21T00:14:44.391Z,59.01
2023-05-21T00:15:46.763Z,58.92
2023-05-21T00:16:49.785Z,59.05
2023-05-21T00:17:52.289Z,59.04
2023-05-21T00:18:54.814Z,58.75
2023-05-21T00:19:57.229Z,58.72
2023-05-21T00:20:59.572Z,59.11
2023-05-21T00:22:04.794Z,58.95
2023-05-21T00:23:07.282Z,59.16
2023-05-21T00:24:09.673Z,58.83
2023-05-21T00:25:12.384Z,58.86
2023-05-21T00:26:14.685Z,58.91
2023-05-21T00:27:17.814Z,59.06
2023-05-21T00:28:20.090Z,59.23
2023-05-21T00:29:23.088Z,59.31
2023-05-21T00:30:25.769Z,59.39
2023-05-21T00:31:28.273Z,59.37
2023-05-21T00:32:31.022Z,59.36
2023-05-21T00:33:37.173Z,59.48
2023-05-21T00:34:39.577Z,59.65
2023-05-21T00:35:42.061Z,59.63
2023-05-21T00:36:45.994Z,59.62
2023-05-21T00:37:50.407Z,59.67
2023-05-21T00:38:52.914Z,59.83
2023-05-21T00:39:57.569Z,59.50
2023-05-21T00:41:02.816Z,59.85
2023-05-21T00:42:05.417Z,59.68
2023-05-21T00:43:10.412Z,59.83
2023-05-21T00:44:14.202Z,59.70
2023-05-21T00:45:16.815Z,59.62
2023-05-21T00:46:21.116Z,60.23
2023-05-21T00:47:23.744Z,60.23
2023-05-21T00:48:26.414Z,60.17
2023-05-21T00:49:30.120Z,60.01
2023-05-21T00:50:33.689Z,60.16
2023-05-21T00:51:36.463Z,60.08
2023-05-21T00:52:42.425Z,60.16
2023-05-21T00:53:45.622Z,60.06
2023-05-21T00:54:49.872Z,60.33
2023-05-21T00:55:52.298Z,60.19
2023-05-21T00:56:55.155Z,60.61
2023-05-21T00:57:57.435Z,60.49
2023-05-21T00:58:59.974Z,60.57
2023-05-21T01:00:02.344Z,60.59
2023-05-21T01:01:07.344Z,60.50
2023-05-21T01:02:09.814Z,60.35
2023-05-21T01:03:12.654Z,60.40
2023-05-21T01:04:15.098Z,60.63
2023-05-21T01:05:18.199Z,60.66
2023-05-21T01:06:21.470Z,60.61
2023-05-21T01:07:23.787Z,60.75
2023-05-21T01:08:29.105Z,60.76
2023-05-21T01:09:31.674Z,60.75
2023-05-21T01:10:35.098Z,60.64
2023-05-21T01:11:41.374Z,60.78
2023-05-21T01:12:44.604Z,60.90
2023-05-21T01:13:49.671Z,61.14
2023-05-21T01:14:52.741Z,61.01
2023-05-21T01:15:55.405Z,60.96
2023-05-21T01:16:58.690Z,61.19
2023-05-21T01:18:01.188Z,60.86
2023-05-21T01:19:05.625Z,61.00
2023-05-21T01:20:10.458Z,60.86
2023-05-21T01:21:13.856Z,61.16
2023-05-21T01:22:18.920Z,61.46
2023-05-21T01:23:21.777Z,61.26
2023-05-21T01:24:24.765Z,61.42
2023-05-21T01:25:27.371Z,61.25
2023-05-21T01:26:30.774Z,61.43
2023-05-21T01:27:33.080Z,61.30
2023-05-21T01:28:35.401Z,61.55
2023-05-21T01:29:37.736Z,61.51
2023-05-21T01:30:42.756Z,61.48
2023-05-21T01:32:11.848Z,61.51
2023-05-21T01:33:23.444Z,61.67
2023-05-21T01:34:48.704Z,61.97
2023-05-21T01:35:56.280Z,61.61
2023-05-21T01:37:14.198Z,61.65
2023-05-21T01:38:25.104Z,61.57
2023-05-21T01:39:33.061Z,61.73
2023-05-21T01:40:59.145Z,61.71
2023-05-21T01:42:05.830Z,61.88
2023-05-21T01:43:09.674Z,61.93
2023-05-21T01:44:13.236Z,61.60
2023-05-21T01:45:17.803Z,61.89
2023-05-21T01:46:25.942Z,61.81
2023-05-21T01:47:30.513Z,61.78
2023-05-21T01:48:33.230Z,61.68
2023-05-21T01:49:35.962Z,61.74
2023-05-21T01:50:40.761Z,61.90
2023-05-21T01:51:44.138Z,61.65
2023-05-21T01:52:51.729Z,61.81
2023-05-21T01:53:54.554Z,61.89
2023-05-21T01:54:57.928Z,61.71
2023-05-21T01:56:00.918Z,61.94
2023-05-21T01:57:04.039Z,61.57
2023-05-21T01:58:06.536Z,61.79
2023-05-21T01:59:09.189Z,61.98
2023-05-21T02:00:12.844Z,61.86
2023-05-21T02:01:18.062Z,62.02
2023-05-21T02:02:20.443Z,61.95
2023-05-21T02:03:26.983Z,61.88
2023-05-21T02:04:29.901Z,61.87
2023-05-21T02:05:32.418Z,61.74
2023-05-21T02:06:37.100Z,61.88
2023-05-21T02:07:40.567Z,61.73
2023-05-21T02:08:42.925Z,61.94
2023-05-21T02:09:45.547Z,62.09
2023-05-21T02:10:47.872Z,62.08
2023-05-21T02:11:50.184Z,62.22
2023-05-21T02:12:52.675Z,61.89
2023-05-21T02:13:56.339Z,61.91
2023-05-21T02:14:58.712Z,62.01
2023-05-21T02:16:01.837Z,62.17
2023-05-21T02:17:04.333Z,62.04
2023-05-21T02:18:06.720Z,62.31
2023-05-21T02:19:10.703Z,62.02
2023-05-21T02:20:14.042Z,62.27
2023-05-21T02:21:16.559Z,62.01
2023-05-21T02:22:18.914Z,62.28
2023-05-21T02:23:21.433Z,62.16
2023-05-21T02:24:25.657Z,62.30
2023-05-21T02:25:28.010Z,62.21
2023-05-21T02:26:30.425Z,61.80
2023-05-21T02:27:35.387Z,62.10
2023-05-21T02:28:38.902Z,62.14
2023-05-21T02:29:41.439Z,62.01
2023-05-21T02:30:43.871Z,62.09
2023-05-21T02:31:46.556Z,62.19
2023-05-21T02:32:50.092Z,61.95
2023-05-21T02:33:52.421Z,62.22
2023-05-21T02:34:54.758Z,62.29
2023-05-21T02:35:57.264Z,62.32
2023-05-21T02:36:59.576Z,62.08
2023-05-21T02:38:03.291Z,62.24
2023-05-21T02:39:05.918Z,62.31
2023-05-21T02:40:10.397Z,62.11
2023-05-21T02:41:12.930Z,62.12
2023-05-21T02:42:15.418Z,62.60
2023-05-21T02:43:18.279Z,62.38
2023-05-21T02:44:21.120Z,62.35
2023-05-21T02:45:23.585Z,62.23
2023-05-21T02:46:26.178Z,62.37
2023-05-21T02:47:30.629Z,62.51
2023-05-21T02:48:33.163Z,62.23
2023-05-21T02:49:35.665Z,62.17
2023-05-21T02:50:38.138Z,62.37
2023-05-21T02:51:40.740Z,62.26
2023-05-21T02:52:43.374Z,62.51
2023-05-21T02:53:45.782Z,62.46
2023-05-21T02:54:48.815Z,62.44
2023-05-21T02:55:51.300Z,62.39
2023-05-21T02:56:53.566Z,62.61
2023-05-21T02:57:56.046Z,62.42
2023-05-21T02:58:58.441Z,62.55
2023-05-21T03:00:01.111Z,62.63
2023-05-21T03:01:03.959Z,62.68
2023-05-21T03:02:06.854Z,62.46
2023-05-21T03:03:09.308Z,62.57
2023-05-21T03:04:11.937Z,62.55
2023-05-21T03:05:14.320Z,62.59
2023-05-21T03:06:16.925Z,62.35
2023-05-21T03:07:20.153Z,62.54
2023-05-21T03:08:22.731Z,62.38
2023-05-21T03:09:25.097Z,62.50
2023-05-21T03:10:27.513Z,62.52
2023-05-21T03:11:29.817Z,62.63
2023-05-21T03:12:32.193Z,62.68
2023-05-21T03:13:35.233Z,62.61
2023-05-21T03:14:39.378Z,62.39
2023-05-21T03:15:42.006Z,62.54
2023-05-21T03:16:44.923Z,62.37
2023-05-21T03:17:48.552Z,62.42
2023-05-21T03:18:50.988Z,62.72
2023-05-21T03:19:55.134Z,62.51
2023-05-21T03:20:59.195Z,62.73
2023-05-21T03:22:02.938Z,62.87
2023-05-21T03:23:06.061Z,62.70
2023-05-21T03:24:09.880Z,63.03
2023-05-21T03:25:13.018Z,62.98
2023-05-21T03:26:15.831Z,62.87
2023-05-21T03:27:18.372Z,62.68
2023-05-21T03:28:21.561Z,62.70
2023-05-21T03:29:25.679Z,62.75
2023-05-21T03:30:28.396Z,62.65
2023-05-21T03:32:05.515Z,62.72
2023-05-21T03:33:08.837Z,62.70
2023-05-21T03:34:11.703Z,62.99
2023-05-21T03:35:14.045Z,63.17
2023-05-21T03:36:17.928Z,63.06
2023-05-21T03:37:20.352Z,63.23
2023-05-21T03:38:24.075Z,62.93
2023-05-21T03:39:26.564Z,62.83
2023-05-21T03:40:31.023Z,63.21
2023-05-21T03:41:33.527Z,63.07
2023-05-21T03:42:45.382Z,63.32
2023-05-21T03:43:47.976Z,63.19
2023-05-21T03:44:50.349Z,63.25
2023-05-21T03:46:11.225Z,63.02
2023-05-21T03:47:13.668Z,63.06
2023-05-21T03:48:16.210Z,63.00
2023-05-21T03:49:18.601Z,63.24
2023-05-21T03:50:20.925Z,63.10
2023-05-21T03:51:23.283Z,63.30
2023-05-21T03:52:25.693Z,63.06
2023-05-21T03:53:28.073Z,63.27
2023-05-21T03:54:30.532Z,63.11
2023-05-21T03:55:37.717Z,63.06
2023-05-21T03:56:40.807Z,62.78
2023-05-21T03:57:43.243Z,63.26
2023-05-21T03:58:45.989Z,63.28
2023-05-21T03:59:48.345Z,63.21
2023-05-21T04:00:51.553Z,63.27
2023-05-21T04:01:54.272Z,63.28
2023-05-21T04:02:57.033Z,63.35
2023-05-21T04:03:59.575Z,63.13
2023-05-21T04:05:03.576Z,63.44
2023-05-21T04:06:06.065Z,63.24
2023-05-21T04:07:15.597Z,63.32
2023-05-21T04:08:18.039Z,63.11
2023-05-21T04:09:20.421Z,63.32
2023-05-21T04:10:23.289Z,63.14
2023-05-21T04:11:26.394Z,63.14
2023-05-21T04:12:28.712Z,63.16
2023-05-21T04:13:31.080Z,63.51
2023-05-21T04:14:34.371Z,63.50
2023-05-21T04:15:36.940Z,63.37
2023-05-21T04:16:39.884Z,63.45
2023-05-21T04:17:42.231Z,63.26
2023-05-21T04:18:45.900Z,63.41
2023-05-21T04:19:49.336Z,63.26
2023-05-21T04:20:52.066Z,63.23
2023-05-21T04:21:54.410Z,63.26
2023-05-21T04:22:56.992Z,63.38
2023-05-21T04:24:01.054Z,63.26
2023-05-21T04:25:12.438Z,63.24
2023-05-21T04:26:16.465Z,63.34
2023-05-21T04:27:19.450Z,63.25
2023-05-21T04:28:21.888Z,63.22
2023-05-21T04:29:26.089Z,63.20
2023-05-21T04:30:28.529Z,63.25
2023-05-21T04:31:33.062Z,63.16
2023-05-21T04:32:36.280Z,63.39
2023-05-21T04:33:38.642Z,63.14
2023-05-21T04:34:40.979Z,63.38
2023-05-21T04:35:44.783Z,63.25
2023-05-21T04:36:48.965Z,63.47
2023-05-21T04:37:52.394Z,63.20
2023-05-21T04:38:55.336Z,63.26
2023-05-21T04:39:58.124Z,63.05
2023-05-21T04:41:04.152Z,63.40
2023-05-21T04:42:11.188Z,63.10
2023-05-21T04:43:14.197Z,63.54
2023-05-21T04:44:16.573Z,63.37
2023-05-21T04:45:21.356Z,63.44
2023-05-21T04:46:25.574Z,63.39
2023-05-21T04:47:30.575Z,63.29
2023-05-21T04:48:33.077Z,63.08
2023-05-21T04:49:35.431Z,62.86
2023-05-21T04:50:37.777Z,62.72
2023-05-21T04:51:40.212Z,62.65
2023-05-21T04:52:42.755Z,62.41
2023-05-21T04:53:45.072Z,62.54
2023-05-21T04:54:48.420Z,62.63
2023-05-21T04:55:50.772Z,62.16
2023-05-21T04:56:53.553Z,61.91
2023-05-21T04:57:55.990Z,61.79
2023-05-21T04:58:59.064Z,61.64
2023-05-21T05:00:02.097Z,61.57
2023-05-21T05:01:09.683Z,61.43
2023-05-21T05:02:11.996Z,60.91
2023-05-21T05:03:16.494Z,60.94
2023-05-21T05:04:19.624Z,60.44
2023-05-21T05:05:21.965Z,60.35
2023-05-21T05:06:26.097Z,60.06
2023-05-21T05:07:31.630Z,59.78
2023-05-21T05:08:34.214Z,59.58
2023-05-21T05:09:36.553Z,59.21
2023-05-21T05:10:39.124Z,58.89
2023-05-21T05:11:41.735Z,58.71
2023-05-21T05:12:44.426Z,58.37
2023-05-21T05:13:48.127Z,57.89
2023-05-21T05:14:50.617Z,57.35
2023-05-21T05:15:54.812Z,57.71
2023-05-21T05:17:00.934Z,57.50
2023-05-21T05:18:07.028Z,57.10
2023-05-21T05:19:09.615Z,56.61
2023-05-21T05:20:13.784Z,56.18
2023-05-21T05:21:16.333Z,55.91
2023-05-21T05:22:18.652Z,55.82
2023-05-21T05:23:22.975Z,55.50
2023-05-21T05:24:26.285Z,55.45
2023-05-21T05:25:28.579Z,55.28
2023-05-21T05:26:30.943Z,54.94
2023-05-21T05:27:33.526Z,55.26
2023-05-21T05:28:38.126Z,54.67
2023-05-21T05:29:40.771Z,54.44
2023-05-21T05:30:43.108Z,54.52
2023-05-21T05:31:57.382Z,54.27
2023-05-21T05:33:00.178Z,53.64
2023-05-21T05:34:02.689Z,53.32
2023-05-21T05:35:05.800Z,53.20
2023-05-21T05:36:11.783Z,53.19
2023-05-21T05:37:14.202Z,53.00
2023-05-21T05:38:17.406Z,52.87
2023-05-21T05:39:19.735Z,52.93
2023-05-21T05:40:24.052Z,51.98
2023-05-21T05:41:27.136Z,51.54
2023-05-21T05:42:30.844Z,51.69
2023-05-21T05:43:34.862Z,51.60
2023-05-21T05:44:37.411Z,51.60
2023-05-21T05:45:39.991Z,51.33
2023-05-21T05:46:47.530Z,51.25
2023-05-21T05:47:50.055Z,51.25
2023-05-21T05:48:52.393Z,50.67
2023-05-21T05:49:55.070Z,50.66
2023-05-21T05:50:58.036Z,50.63
2023-05-21T05:52:01.812Z,50.38
2023-05-21T05:53:04.151Z,50.47
2023-05-21T05:54:06.764Z,50.44
2023-05-21T05:55:14.466Z,50.24
2023-05-21T05:56:19.935Z,50.26
2023-05-21T05:57:23.822Z,49.89
2023-05-21T05:58:30.123Z,49.88
2023-05-21T05:59:43.095Z,49.78
2023-05-21T06:00:47.107Z,49.89
2023-05-21T06:01:55.632Z,49.50
2023-05-21T06:02:58.168Z,49.64
2023-05-21T06:04:00.982Z,49.12
2023-05-21T06:05:07.680Z,49.09
2023-05-21T06:06:10.237Z,48.95
2023-05-21T06:07:12.750Z,48.68
2023-05-21T06:08:16.234Z,48.77
2023-05-21T06:09:18.634Z,48.43
2023-05-21T06:10:21.097Z,48.82
2023-05-21T06:11:25.801Z,48.66
2023-05-21T06:12:29.375Z,48.87
2023-05-21T06:13:32.293Z,48.42
2023-05-21T06:14:34.653Z,48.63
2023-05-21T06:15:37.188Z,48.35
2023-05-21T06:16:39.959Z,48.27
2023-05-21T06:17:42.451Z,48.06
2023-05-21T06:18:47.489Z,47.85
2023-05-21T06:19:49.970Z,47.75
2023-05-21T06:20:52.454Z,47.82
2023-05-21T06:21:56.297Z,47.68
2023-05-21T06:22:58.663Z,47.46
2023-05-21T06:24:01.965Z,47.26
2023-05-21T06:25:06.123Z,47.47
2023-05-21T06:26:08.546Z,47.42
2023-05-21T06:27:11.216Z,46.95
2023-05-21T06:28:14.459Z,46.99
2023-05-21T06:29:17.645Z,47.09
2023-05-21T06:30:21.860Z,46.98
2023-05-21T06:31:24.834Z,46.90
2023-05-21T06:32:27.343Z,46.80
2023-05-21T06:33:29.907Z,46.83
2023-05-21T06:34:32.783Z,46.90
2023-05-21T06:35:37.578Z,46.90
2023-05-21T06:36:40.478Z,46.61
2023-05-21T06:37:43.461Z,46.64
2023-05-21T06:38:45.827Z,46.49
2023-05-21T06:39:48.261Z,46.23
2023-05-21T06:40:50.670Z,46.04
2023-05-21T06:42:07.020Z,46.15
2023-05-21T06:43:29.372Z,46.00
2023-05-21T06:44:50.943Z,46.49
2023-05-21T06:46:05.664Z,46.30
2023-05-21T06:47:13.468Z,46.18
2023-05-21T06:48:19.002Z,46.13
2023-05-21T06:49:23.071Z,45.95
2023-05-21T06:50:25.488Z,45.89
2023-05-21T06:51:28.322Z,45.76
2023-05-21T06:52:31.968Z,45.41
2023-05-21T06:53:36.090Z,45.97
2023-05-21T06:54:38.655Z,45.74
2023-05-21T06:55:45.644Z,45.92
2023-05-21T06:56:56.361Z,46.06
2023-05-21T06:57:59.108Z,45.49
2023-05-21T06:59:01.801Z,45.75
2023-05-21T07:00:05.893Z,45.87
2023-05-21T07:01:10.172Z,45.68
2023-05-21T07:02:14.176Z,45.89
2023-05-21T07:03:17.491Z,46.16
2023-05-21T07:04:20.092Z,45.86
2023-05-21T07:05:22.672Z,45.89
2023-05-21T07:06:24.985Z,45.95
2023-05-21T07:07:27.809Z,46.09
2023-05-21T07:08:31.490Z,45.95
2023-05-21T07:09:34.603Z,45.86
2023-05-21T07:10:37.019Z,46.03
2023-05-21T07:11:40.880Z,45.93
2023-05-21T07:12:44.706Z,46.19
2023-05-21T07:13:48.380Z,46.24
2023-05-21T07:14:51.342Z,46.07
2023-05-21T07:15:54.958Z,46.36
2023-05-21T07:16:57.343Z,46.40
2023-05-21T07:18:01.245Z,46.42
2023-05-21T07:19:03.631Z,46.57
2023-05-21T07:20:07.982Z,46.50
2023-05-21T07:21:11.333Z,46.53
2023-05-21T07:22:13.920Z,46.23
2023-05-21T07:23:17.441Z,46.43
2023-05-21T07:24:21.562Z,46.37
2023-05-21T07:25:24.096Z,46.44
2023-05-21T07:26:26.885Z,46.64
2023-05-21T07:27:29.760Z,46.37
2023-05-21T07:28:32.300Z,46.43
2023-05-21T07:29:35.497Z,46.65
2023-05-21T07:30:37.948Z,46.69
2023-05-21T07:31:44.860Z,46.54
2023-05-21T07:32:47.229Z,46.71
2023-05-21T07:33:50.020Z,46.54
2023-05-21T07:34:54.478Z,46.66
2023-05-21T07:35:59.284Z,46.43
2023-05-21T07:37:01.656Z,46.47
2023-05-21T07:38:04.153Z,46.23
2023-05-21T07:39:06.774Z,46.14
2023-05-21T07:40:11.141Z,46.17
2023-05-21T07:41:13.746Z,46.13
2023-05-21T07:42:16.285Z,45.58
2023-05-21T07:43:20.137Z,45.69
2023-05-21T07:44:22.482Z,45.81
2023-05-21T07:45:27.531Z,45.65
2023-05-21T07:46:30.179Z,45.36
2023-05-21T07:47:33.678Z,45.56
2023-05-21T07:48:36.281Z,45.52
2023-05-21T07:49:40.062Z,45.33
2023-05-21T07:50:43.091Z,45.47
2023-05-21T07:51:45.919Z,45.69
2023-05-21T07:52:48.714Z,45.35
2023-05-21T07:53:54.447Z,45.31
2023-05-21T07:55:03.270Z,44.81
2023-05-21T07:56:09.240Z,44.60
2023-05-21T07:57:11.618Z,44.53
2023-05-21T07:58:23.809Z,43.98
2023-05-21T07:59:26.188Z,44.03
2023-05-21T08:00:28.877Z,44.22
2023-05-21T08:01:37.672Z,44.00
2023-05-21T08:02:40.515Z,44.36
2023-05-21T08:03:44.121Z,44.18
2023-05-21T08:04:46.635Z,44.01
2023-05-21T08:05:51.058Z,43.21
2023-05-21T08:06:54.107Z,43.44
2023-05-21T08:07:56.868Z,43.43
2023-05-21T08:09:00.606Z,42.64
2023-05-21T08:10:03.667Z,42.49
2023-05-21T08:11:07.189Z,42.20
2023-05-21T08:12:10.551Z,42.02
2023-05-21T08:13:13.431Z,41.73
2023-05-21T08:14:15.954Z,41.32
2023-05-21T08:15:18.426Z,41.19
2023-05-21T08:16:23.639Z,41.15
2023-05-21T08:17:26.305Z,40.67
2023-05-21T08:18:28.792Z,40.76
2023-05-21T08:19:32.781Z,40.95
2023-05-21T08:20:35.793Z,40.74
2023-05-21T08:21:38.358Z,40.56
2023-05-21T08:22:41.456Z,40.18
2023-05-21T08:23:44.619Z,39.96
2023-05-21T08:24:49.695Z,39.88
2023-05-21T08:25:53.565Z,39.54
2023-05-21T08:26:56.736Z,39.30
2023-05-21T08:27:59.535Z,38.92
2023-05-21T08:29:02.563Z,38.68
2023-05-21T08:30:06.174Z,38.66
2023-05-21T08:31:08.540Z,38.13
2023-05-21T08:32:12.132Z,38.60
2023-05-21T08:33:15.256Z,38.36
2023-05-21T08:34:18.800Z,38.49
2023-05-21T08:35:32.317Z,38.08
2023-05-21T08:36:46.318Z,38.06
2023-05-21T08:38:08.553Z,37.75
2023-05-21T08:39:36.955Z,37.51
2023-05-21T08:40:39.678Z,37.58
2023-05-21T08:41:46.664Z,37.00
2023-05-21T08:42:50.056Z,36.65
2023-05-21T08:44:00.455Z,36.28
2023-05-21T08:45:05.523Z,36.10
2023-05-21T08:46:10.183Z,36.19
2023-05-21T08:47:19.038Z,36.33
2023-05-21T08:48:23.770Z,36.33
2023-05-21T08:49:31.079Z,35.86
2023-05-21T08:50:33.560Z,36.10
2023-05-21T08:51:41.950Z,36.05
2023-05-21T08:52:44.403Z,35.84
2023-05-21T08:53:47.192Z,35.62
2023-05-21T08:54:53.417Z,35.71
2023-05-21T08:55:57.473Z,35.21
2023-05-21T08:57:06.194Z,34.47
2023-05-21T08:58:13.870Z,33.78
2023-05-21T08:59:18.626Z,34.64
2023-05-21T09:00:23.088Z,34.20
2023-05-21T09:01:27.922Z,34.68
2023-05-21T09:02:44.223Z,34.35
2023-05-21T09:03:47.523Z,33.58
2023-05-21T09:04:50.347Z,33.38
2023-05-21T09:05:53.947Z,33.27
2023-05-21T09:06:58.254Z,33.16
2023-05-21T09:08:31.423Z,33.63
2023-05-21T09:09:58.554Z,33.95
2023-05-21T09:11:05.508Z,33.64
2023-05-21T09:12:13.447Z,32.87
2023-05-21T09:13:18.149Z,32.12
2023-05-21T09:14:21.672Z,31.94
2023-05-21T09:15:35.351Z,31.70
2023-05-21T09:16:37.736Z,31.66
2023-05-21T09:17:40.236Z,31.82
2023-05-21T09:18:59.627Z,31.97
2023-05-21T09:20:15.186Z,31.27
2023-05-21T09:21:32.037Z,31.10
2023-05-21T09:22:50.768Z,31.33
2023-05-21T09:23:58.513Z,30.55
2023-05-21T09:25:05.311Z,30.58
2023-05-21T09:26:13.007Z,30.70
2023-05-21T09:27:18.632Z,31.09
2023-05-21T09:28:21.253Z,31.03
2023-05-21T09:29:26.534Z,30.74
2023-05-21T09:30:31.832Z,30.95
2023-05-21T09:31:37.091Z,30.65
2023-05-21T09:32:40.419Z,30.59
2023-05-21T09:33:50.426Z,30.59
2023-05-21T09:34:54.718Z,30.69
2023-05-21T09:35:57.246Z,30.23
2023-05-21T09:37:03.655Z,29.89
2023-05-21T09:38:10.280Z,29.84
2023-05-21T09:39:27.450Z,29.71
2023-05-21T09:40:29.896Z,29.22
2023-05-21T09:41:36.571Z,29.17
2023-05-21T09:42:41.085Z,29.51
2023-05-21T09:43:44.716Z,29.39
2023-05-21T09:44:48.137Z,29.64
2023-05-21T09:45:52.225Z,29.75
2023-05-21T09:47:05.740Z,29.54
2023-05-21T09:48:08.197Z,30.05
2023-05-21T09:49:25.058Z,29.95
2023-05-21T09:50:28.734Z,29.68
2023-05-21T09:51:32.761Z,29.75
2023-05-21T09:52:37.859Z,29.84
2023-05-21T09:53:54.353Z,30.21
2023-05-21T09:54:57.799Z,30.18
2023-05-21T09:56:00.264Z,29.94
2023-05-21T09:57:03.161Z,30.01
2023-05-21T09:58:06.252Z,30.11
2023-05-21T09:59:08.603Z,29.92
2023-05-21T10:00:21.446Z,29.55
2023-05-21T10:01:25.069Z,29.59
2023-05-21T10:02:30.255Z,29.44
2023-05-21T10:03:38.853Z,29.07
2023-05-21T10:04:44.909Z,28.91
2023-05-21T10:05:47.294Z,29.20
2023-05-21T10:06:50.853Z,28.86
2023-05-21T10:07:54.656Z,29.01
2023-05-21T10:09:00.042Z,29.21
2023-05-21T10:10:04.543Z,29.44
2023-05-21T10:11:07.361Z,29.60
2023-05-21T10:12:11.089Z,29.87
2023-05-21T10:13:15.750Z,29.98
2023-05-21T10:14:22.882Z,29.75
2023-05-21T10:15:26.026Z,29.43
2023-05-21T10:16:29.759Z,29.64
2023-05-21T10:17:32.729Z,30.00
2023-05-21T10:18:37.961Z,30.28
2023-05-21T10:19:41.900Z,30.06
2023-05-21T10:20:45.246Z,30.05
2023-05-21T10:21:48.580Z,29.34
2023-05-21T10:22:52.227Z,29.06
2023-05-21T10:23:58.138Z,28.77
2023-05-21T10:25:03.463Z,28.53
2023-05-21T10:26:07.247Z,29.17
2023-05-21T10:27:10.503Z,29.13
2023-05-21T10:28:18.234Z,28.33
2023-05-21T10:29:21.851Z,28.03
2023-05-21T10:30:24.881Z,27.53
2023-05-21T10:31:28.174Z,27.50
2023-05-21T10:32:31.940Z,27.19
2023-05-21T10:33:36.082Z,27.19
2023-05-21T10:34:38.690Z,27.34
2023-05-21T10:35:41.450Z,27.30
2023-05-21T10:36:44.944Z,27.58
2023-05-21T10:37:47.713Z,27.71
2023-05-21T10:38:50.149Z,27.80
2023-05-21T10:39:52.696Z,28.09
2023-05-21T10:40:55.974Z,27.47
2023-05-21T10:42:12.663Z,27.79
2023-05-21T10:43:56.802Z,27.75
2023-05-21T10:45:26.672Z,27.85
2023-05-21T10:47:09.598Z,28.01
2023-05-21T10:48:30.055Z,28.73
2023-05-21T10:49:53.593Z,29.48
2023-05-21T10:51:08.380Z,30.07
2023-05-21T10:52:35.605Z,30.71
2023-05-21T10:53:56.537Z,30.82
2023-05-21T10:55:23.739Z,31.24
2023-05-21T10:56:28.834Z,31.82
2023-05-21T10:58:08.211Z,32.12
2023-05-21T10:59:15.507Z,32.13
2023-05-21T11:00:20.710Z,32.24
2023-05-21T11:01:23.538Z,32.62
2023-05-21T11:02:27.606Z,32.16
2023-05-21T11:03:34.102Z,32.08
2023-05-21T11:04:42.553Z,32.13
2023-05-21T11:05:57.614Z,32.20
2023-05-21T11:06:59.956Z,31.75
2023-05-21T11:08:03.787Z,31.81
2023-05-21T11:09:15.574Z,32.15
2023-05-21T11:10:32.349Z,32.30
2023-05-21T11:11:51.474Z,32.33
2023-05-21T11:13:16.645Z,32.45
2023-05-21T11:14:41.051Z,32.92
2023-05-21T11:15:58.798Z,33.28
2023-05-21T11:17:07.934Z,33.00
2023-05-21T11:18:10.367Z,33.20
2023-05-21T11:19:19.190Z,32.27
2023-05-21T11:20:23.019Z,31.87
2023-05-21T11:21:30.696Z,32.39
2023-05-21T11:22:36.582Z,31.43
2023-05-21T11:23:51.516Z,31.55
2023-05-21T11:24:55.710Z,30.58
2023-05-21T11:26:02.482Z,29.42
2023-05-21T11:27:07.020Z,29.80
2023-05-21T11:28:09.785Z,29.40
2023-05-21T11:29:12.224Z,29.06
2023-05-21T11:30:19.108Z,29.43
2023-05-21T11:31:28.106Z,29.82
2023-05-21T11:32:31.804Z,29.29
2023-05-21T11:33:34.184Z,29.19
2023-05-21T11:34:39.829Z,29.27
2023-05-21T11:35:44.801Z,29.29
2023-05-21T11:36:48.961Z,29.29
2023-05-21T11:37:54.320Z,29.57
2023-05-21T11:39:11.811Z,30.02
2023-05-21T11:40:30.385Z,30.34
2023-05-21T11:41:50.334Z,30.84
2023-05-21T11:42:54.831Z,30.91
2023-05-21T11:44:03.066Z,31.64
2023-05-21T11:45:05.903Z,31.64
2023-05-21T11:46:10.216Z,31.90
2023-05-21T11:47:21.263Z,32.17
2023-05-21T11:48:27.119Z,32.50
2023-05-21T11:49:31.791Z,32.81
2023-05-21T11:50:35.155Z,32.90
2023-05-21T11:51:37.942Z,31.91
2023-05-21T11:52:41.553Z,31.64
2023-05-21T11:53:44.497Z,32.06
2023-05-21T11:54:50.950Z,32.05
2023-05-21T11:55:57.736Z,31.77
2023-05-21T11:57:03.681Z,31.86
2023-05-21T11:58:08.753Z,31.22
2023-05-21T11:59:18.835Z,31.29
2023-05-21T12:00:22.042Z,30.66
2023-05-21T12:01:25.006Z,30.23
2023-05-21T12:02:32.645Z,29.73
2023-05-21T12:03:35.680Z,29.39
2023-05-21T12:04:38.338Z,29.34
2023-05-21T12:05:49.976Z,29.88
2023-05-21T12:06:53.390Z,29.52
2023-05-21T12:07:56.839Z,29.59
2023-05-21T12:08:59.257Z,29.52
2023-05-21T12:10:01.572Z,29.74
2023-05-21T12:11:03.918Z,29.98
2023-05-21T12:12:08.442Z,29.44
2023-05-21T12:13:10.961Z,29.95
2023-05-21T12:14:14.238Z,30.52
2023-05-21T12:15:18.266Z,30.98
2023-05-21T12:16:21.083Z,30.94
2023-05-21T12:17:24.791Z,31.14
2023-05-21T12:18:27.264Z,30.65
2023-05-21T12:19:33.599Z,30.56
2023-05-21T12:20:36.061Z,30.69
2023-05-21T12:21:39.868Z,30.36
2023-05-21T12:22:44.947Z,29.81
2023-05-21T12:23:47.357Z,30.03
2023-05-21T12:24:49.732Z,29.90
2023-05-21T12:25:53.881Z,29.93
2023-05-21T12:26:59.662Z,30.17
2023-05-21T12:28:03.901Z,29.66
2023-05-21T12:29:07.674Z,30.01
2023-05-21T12:30:10.281Z,29.76
2023-05-21T12:31:16.416Z,29.91
2023-05-21T12:32:20.127Z,30.15
2023-05-21T12:33:25.018Z,30.28
2023-05-21T12:34:48.888Z,30.77
2023-05-21T12:35:52.658Z,30.75
2023-05-21T12:36:55.072Z,31.13
2023-05-21T12:37:57.913Z,30.67
2023-05-21T12:39:00.296Z,30.60
2023-05-21T12:40:08.290Z,30.40
2023-05-21T12:41:11.235Z,30.02
2023-05-21T12:42:15.694Z,30.42
2023-05-21T12:43:18.004Z,30.07
2023-05-21T12:44:20.279Z,29.73
2023-05-21T12:45:22.876Z,29.66
2023-05-21T12:46:25.338Z,29.82
2023-05-21T12:47:28.481Z,30.13
2023-05-21T12:48:30.833Z,30.08
2023-05-21T12:49:43.143Z,30.16
2023-05-21T12:50:45.732Z,30.42
2023-05-21T12:51:50.369Z,30.82
2023-05-21T12:52:58.222Z,30.81
2023-05-21T12:54:02.449Z,31.02
2023-05-21T12:55:06.222Z,31.39
2023-05-21T12:56:13.755Z,31.62
2023-05-21T12:57:18.135Z,31.83
2023-05-21T12:58:22.536Z,31.81
2023-05-21T12:59:24.893Z,31.67
2023-05-21T13:00:27.281Z,31.87
2023-05-21T13:01:30.603Z,32.03
2023-05-21T13:02:40.053Z,32.16
2023-05-21T13:03:43.098Z,32.03
2023-05-21T13:04:45.624Z,32.13
2023-05-21T13:05:48.072Z,32.27
2023-05-21T13:06:50.407Z,32.06
2023-05-21T13:07:53.060Z,32.48
2023-05-21T13:08:56.139Z,32.46
2023-05-21T13:09:59.590Z,32.49
2023-05-21T13:11:02.952Z,32.48
2023-05-21T13:12:05.506Z,32.54
2023-05-21T13:13:07.784Z,32.11
2023-05-21T13:14:10.162Z,32.06
2023-05-21T13:15:13.074Z,32.20
2023-05-21T13:16:15.496Z,32.49
2023-05-21T13:17:18.705Z,32.51
2023-05-21T13:18:22.134Z,32.66
2023-05-21T13:19:24.565Z,32.80
2023-05-21T13:20:28.221Z,33.09
2023-05-21T13:21:31.382Z,32.74
2023-05-21T13:22:33.787Z,32.71
2023-05-21T13:23:36.114Z,32.43
2023-05-21T13:24:40.023Z,32.54
2023-05-21T13:25:42.404Z,32.51
2023-05-21T13:26:45.009Z,32.59
2023-05-21T13:27:49.011Z,32.66
2023-05-21T13:28:51.306Z,32.58
2023-05-21T13:29:53.660Z,32.90
2023-05-21T13:30:56.634Z,32.75
2023-05-21T13:31:59.015Z,33.27
2023-05-21T13:33:01.536Z,33.24
2023-05-21T13:34:05.565Z,32.93
2023-05-21T13:35:08.957Z,33.46
2023-05-21T13:36:11.379Z,33.29
2023-05-21T13:37:14.223Z,33.27
2023-05-21T13:38:16.565Z,33.64
2023-05-21T13:39:18.968Z,33.62
2023-05-21T13:40:22.918Z,33.81
2023-05-21T13:41:26.402Z,33.93
2023-05-21T13:42:28.846Z,33.81
2023-05-21T13:43:31.205Z,33.93
2023-05-21T13:44:36.401Z,33.97
2023-05-21T13:45:39.150Z,34.08
2023-05-21T13:46:41.888Z,34.14
2023-05-21T13:47:46.631Z,33.99
2023-05-21T13:48:49.019Z,34.20
2023-05-21T13:49:51.617Z,34.48
2023-05-21T13:50:53.969Z,34.39
2023-05-21T13:51:58.263Z,34.16
2023-05-21T13:53:00.791Z,34.21
2023-05-21T13:54:03.291Z,34.09
2023-05-21T13:55:06.157Z,33.96
2023-05-21T13:56:08.492Z,33.96